Terminal Aerodrome Forecast
Issued by NWS

Home | Current Version | Previous Version | Graphics & Text | Print | Product List | Glossary On
Versions: 1 2 3 4 5 6 7 8 9 10 11 12 13 14 15
904
FTUS43 KTOP 301133
TAFFOE
TAF
KFOE 301133Z 3012/3112 05004KT P6SM FEW150
     FM302000 11005KT P6SM SCT050 BKN100
     FM310900 13005KT P6SM VCTS SCT050 BKN080CB=

USA.gov is the U.S. government's official web portal to all federal, state and local government web resources and services.